Yukon, Arkansas
Current Conditions -  °F | °C
As of 3:53 PM on Wednesday 22 Oct 2014 (Local Time) from KLLQ Reporting Station
Clear Clear  
Wind Chill: 73°   Ceiling: Unl
Heat Index: 73°   Visibility: 10mi
Dew Point: 49°   Wind: 8mph
Humidity: 42%   Direction: 30°NNE
Pressure: 30.14"   Gusts: NA
Location:  33.7466°N, 91.5753°W
Report Text: KLLQ 222053Z AUTO 03007KT 340V060 10SM CLR 23/09 A3014 RMK AO2 SLP206 T02280094 56019
Loading
Personal Weather Stations






























Interactive Weather Map
Tropical Storm Tracking
New forecast layout! Learn more

10-Day Weather Forecast

Advertisements
Track Severe Weather on mobile